Airfield :
LOGIN :

Register | Disclaimer

   EN    FR    IT 

 










Legend :    VFR   Marginal VFR   IFR   Intensive IFR   Very Intensive IFR
Visi :
Ceiling :
>= 8 km
>= 3000ft
5 to 8 km
1000 to 3000 ft
1500m to 5 km
500 to 1000 ft
800 to 1500m
200 to 500 ft
< 800m
< 200 ft
Symbols :   Thunderstorms  Fog  Heavy snow  Heavy precipitations  Wind > 20 kt
SIGMETs :     Misc.  Thunderstorms  Icing  Turbulence  Mountain Waves  Volcanic Ashes






- Airport Elevation : 3 ft
- IATA code : DHR


EHKD - Den Helder De Kooy

CURRENT METAR :
  • 021925Z AUTO 29003KT 260V330 9999 NCD 15/09 Q1014 BLU

EXPIRED METARs :
  • 021855Z AUTO 30005KT 270V340 9999 NCD 16/09 Q1014 BLU N0SIG
  • 021825Z AUTO 30006KT 260V330 9999 NCD 16/09 Q1014 BLU N0SIG
  • 021755Z AUTO 33005KT 260V030 9999 SCT028 17/09 Q1014 BLU N0SIG
  • 021729Z AUTO 33007KT 270V020 9999 BKN025 BKN029 OVC037 17/10 Q1014 BLU N0SIG
  • 021725Z AUTO 32006KT 260V020 9999 BKN024 BKN029 BKN034 17/11 Q1014 WHT N0SIG
  • 021717Z AUTO 32006KT 260V020 9999 BKN025 BKN031 17/11 Q1014 BLU N0SIG
  • 021655Z AUTO 30008KT 250V340 9999 FEW029 17/10 Q1014 BLU N0SIG

TAF TAF EHKD
Valid from the 02 at 17:00 until the 03 at 05:00 UTC


021645Z 0217/0305 30008KT 9999 SCT025
BECMG 0221/0224 VRB03KT



MET'MAP, your aeronautical weather chart ! - Copyright ORBIFLY December 2007 - Disclaimer

ORBIFLY MET'MAP TEAM :

Programming & Development : Alexandra Zaïnal
Concept & original design : Baudouin d'Aumeries
Assistance for programming : Marc-Olivier Méhu
Technical & hardware support : Manuel Goepfert

Contact : metmap@orbifly.com




SOURCES & CREDITS :

   NOAA